sensor_id;sensor_type;location;lat;lon;timestamp;pressure;altitude;pressure_sealevel;temperature;humidity
5484;BME280;2764;48.794;8.326;2022-10-17T00:00:13;100320.72;;;13.95;100.00
5484;BME280;2764;48.794;8.326;2022-10-17T00:01:15;100315.69;;;13.91;100.00
5484;BME280;2764;48.794;8.326;2022-10-17T00:02:16;100320.25;;;13.87;100.00
5484;BME280;2764;48.794;8.326;2022-10-17T00:03:18;100317.13;;;13.79;100.00
5484;BME280;2764;48.794;8.326;2022-10-17T00:04:21;100317.91;;;13.81;100.00
5484;BME280;2764;48.794;8.326;2022-10-17T00:05:23;100319.75;;;13.79;100.00
5484;BME280;2764;48.794;8.326;2022-10-17T00:06:25;100320.69;;;13.78;100.00
5484;BME280;2764;48.794;8.326;2022-10-17T00:07:29;100320.75;;;13.77;100.00
5484;BME280;2764;48.794;8.326;2022-10-17T00:08:31;100321.56;;;13.79;100.00
5484;BME280;2764;48.794;8.326;2022-10-17T00:09:33;100317.22;;;13.78;100.00
5484;BME280;2764;48.794;8.326;2022-10-17T00:10:35;100326.88;;;13.77;100.00
5484;BME280;2764;48.794;8.326;2022-10-17T00:11:36;100326.94;;;13.76;100.00
5484;BME280;2764;48.794;8.326;2022-10-17T00:12:39;100324.44;;;13.73;100.00
5484;BME280;2764;48.794;8.326;2022-10-17T00:13:41;100292.28;;;13.49;100.00
5484;BME280;2764;48.794;8.326;2022-10-17T00:14:43;100338.75;;;13.67;100.00
5484;BME280;2764;48.794;8.326;2022-10-17T00:15:45;100334.53;;;13.63;100.00
5484;BME280;2764;48.794;8.326;2022-10-17T00:16:47;100341.59;;;13.63;100.00
5484;BME280;2764;48.794;8.326;2022-10-17T00:17:49;100334.72;;;13.60;100.00
5484;BME280;2764;48.794;8.326;2022-10-17T00:18:50;100330.44;;;13.58;100.00
5484;BME280;2764;48.794;8.326;2022-10-17T00:19:52;100345.47;;;13.54;100.00
5484;BME280;2764;48.794;8.326;2022-10-17T00:20:54;100334.97;;;13.54;100.00
5484;BME280;2764;48.794;8.326;2022-10-17T00:21:56;100344.78;;;13.51;100.00
5484;BME280;2764;48.794;8.326;2022-10-17T00:23:00;100342.28;;;13.48;100.00
5484;BME280;2764;48.794;8.326;2022-10-17T00:24:02;100319.91;;;13.39;100.00
5484;BME280;2764;48.794;8.326;2022-10-17T00:25:04;100342.06;;;13.52;100.00
5484;BME280;2764;48.794;8.326;2022-10-17T00:26:06;100340.00;;;13.59;100.00
5484;BME280;2764;48.794;8.326;2022-10-17T00:27:08;100347.75;;;13.62;100.00
5484;BME280;2764;48.794;8.326;2022-10-17T00:28:14;100365.31;;;13.61;100.00
5484;BME280;2764;48.794;8.326;2022-10-17T00:29:16;100343.50;;;13.59;100.00
5484;BME280;2764;48.794;8.326;2022-10-17T00:30:17;100345.22;;;13.60;100.00
5484;BME280;2764;48.794;8.326;2022-10-17T00:31:21;100343.50;;;13.59;100.00
5484;BME280;2764;48.794;8.326;2022-10-17T00:32:23;100347.91;;;13.59;100.00
5484;BME280;2764;48.794;8.326;2022-10-17T00:33:25;100349.63;;;13.60;100.00
5484;BME280;2764;48.794;8.326;2022-10-17T00:34:28;100352.25;;;13.60;100.00
5484;BME280;2764;48.794;8.326;2022-10-17T00:35:31;100348.63;;;13.62;100.00
5484;BME280;2764;48.794;8.326;2022-10-17T00:36:33;100351.94;;;13.66;100.00
5484;BME280;2764;48.794;8.326;2022-10-17T00:37:35;100357.00;;;13.70;100.00
5484;BME280;2764;48.794;8.326;2022-10-17T00:38:38;100356.84;;;13.73;100.00
5484;BME280;2764;48.794;8.326;2022-10-17T00:39:41;100354.09;;;13.76;100.00
5484;BME280;2764;48.794;8.326;2022-10-17T00:40:43;100352.28;;;13.77;100.00
5484;BME280;2764;48.794;8.326;2022-10-17T00:41:45;100364.44;;;13.79;100.00
5484;BME280;2764;48.794;8.326;2022-10-17T00:42:47;100366.03;;;13.83;100.00
5484;BME280;2764;48.794;8.326;2022-10-17T00:44:02;100359.97;;;13.81;100.00
5484;BME280;2764;48.794;8.326;2022-10-17T00:45:26;100361.22;;;13.74;100.00
5484;BME280;2764;48.794;8.326;2022-10-17T00:46:31;100371.22;;;13.66;100.00
5484;BME280;2764;48.794;8.326;2022-10-17T00:47:34;100367.06;;;13.61;100.00
5484;BME280;2764;48.794;8.326;2022-10-17T00:48:37;100375.03;;;13.59;100.00
5484;BME280;2764;48.794;8.326;2022-10-17T00:49:39;100361.53;;;13.48;100.00
5484;BME280;2764;48.794;8.326;2022-10-17T00:50:43;100363.38;;;13.46;100.00
5484;BME280;2764;48.794;8.326;2022-10-17T00:51:52;100358.38;;;13.40;100.00
5484;BME280;2764;48.794;8.326;2022-10-17T00:52:57;100366.56;;;13.34;100.00
5484;BME280;2764;48.794;8.326;2022-10-17T00:54:03;100366.00;;;13.27;100.00
5484;BME280;2764;48.794;8.326;2022-10-17T00:55:13;100368.81;;;13.23;100.00
5484;BME280;2764;48.794;8.326;2022-10-17T00:56:18;100370.78;;;13.18;100.00
5484;BME280;2764;48.794;8.326;2022-10-17T00:57:21;100376.25;;;13.13;100.00
5484;BME280;2764;48.794;8.326;2022-10-17T00:58:23;100391.34;;;13.08;100.00
5484;BME280;2764;48.794;8.326;2022-10-17T00:59:25;100379.19;;;13.06;100.00
5484;BME280;2764;48.794;8.326;2022-10-17T01:00:29;100368.56;;;13.09;100.00
5484;BME280;2764;48.794;8.326;2022-10-17T01:01:30;100374.69;;;13.09;100.00
5484;BME280;2764;48.794;8.326;2022-10-17T01:02:32;100383.25;;;13.13;100.00
5484;BME280;2764;48.794;8.326;2022-10-17T01:03:34;100378.28;;;13.07;100.00
5484;BME280;2764;48.794;8.326;2022-10-17T01:04:38;100372.22;;;13.05;100.00
5484;BME280;2764;48.794;8.326;2022-10-17T01:05:41;100367.09;;;13.02;100.00
5484;BME280;2764;48.794;8.326;2022-10-17T01:06:43;100377.72;;;12.99;100.00
5484;BME280;2764;48.794;8.326;2022-10-17T01:07:46;100377.94;;;12.94;100.00
5484;BME280;2764;48.794;8.326;2022-10-17T01:08:49;100378.91;;;12.92;100.00
5484;BME280;2764;48.794;8.326;2022-10-17T01:09:51;100378.19;;;12.88;100.00
5484;BME280;2764;48.794;8.326;2022-10-17T01:10:55;100370.41;;;12.87;100.00
5484;BME280;2764;48.794;8.326;2022-10-17T01:13:32;100378.50;;;12.81;100.00
5484;BME280;2764;48.794;8.326;2022-10-17T01:16:09;100378.66;;;12.78;100.00
5484;BME280;2764;48.794;8.326;2022-10-17T01:21:57;100380.75;;;12.69;100.00
5484;BME280;2764;48.794;8.326;2022-10-17T01:27:33;100384.16;;;12.72;100.00
5484;BME280;2764;48.794;8.326;2022-10-17T01:31:51;100362.06;;;12.57;100.00
5484;BME280;2764;48.794;8.326;2022-10-17T01:33:05;100382.03;;;12.59;100.00
5484;BME280;2764;48.794;8.326;2022-10-17T01:34:18;100377.84;;;12.55;100.00
5484;BME280;2764;48.794;8.326;2022-10-17T01:35:28;100385.81;;;12.52;100.00
5484;BME280;2764;48.794;8.326;2022-10-17T01:37:49;100379.00;;;12.48;100.00
5484;BME280;2764;48.794;8.326;2022-10-17T01:39:02;100379.16;;;12.45;100.00
5484;BME280;2764;48.794;8.326;2022-10-17T01:40:19;100382.69;;;12.44;100.00
5484;BME280;2764;48.794;8.326;2022-10-17T01:41:30;100373.25;;;12.40;100.00
5484;BME280;2764;48.794;8.326;2022-10-17T01:42:44;100378.47;;;12.40;100.00
5484;BME280;2764;48.794;8.326;2022-10-17T01:45:15;100342.56;;;12.21;100.00
5484;BME280;2764;48.794;8.326;2022-10-17T01:46:34;100372.00;;;12.49;100.00
5484;BME280;2764;48.794;8.326;2022-10-17T01:47:38;100369.28;;;12.50;100.00
5484;BME280;2764;48.794;8.326;2022-10-17T01:48:44;100371.81;;;12.53;100.00
5484;BME280;2764;48.794;8.326;2022-10-17T01:49:49;100377.84;;;12.55;100.00
5484;BME280;2764;48.794;8.326;2022-10-17T01:51:33;100367.41;;;12.54;100.00
5484;BME280;2764;48.794;8.326;2022-10-17T01:52:44;100371.03;;;12.51;100.00
5484;BME280;2764;48.794;8.326;2022-10-17T01:53:52;100366.03;;;12.45;100.00
5484;BME280;2764;48.794;8.326;2022-10-17T01:55:11;100370.22;;;12.49;100.00
5484;BME280;2764;48.794;8.326;2022-10-17T01:56:15;100370.16;;;12.51;100.00
5484;BME280;2764;48.794;8.326;2022-10-17T01:57:37;100373.53;;;12.54;100.00
5484;BME280;2764;48.794;8.326;2022-10-17T01:58:49;100381.25;;;12.57;100.00
5484;BME280;2764;48.794;8.326;2022-10-17T01:59:54;100375.63;;;12.66;100.00
5484;BME280;2764;48.794;8.326;2022-10-17T02:00:59;100367.44;;;12.74;100.00
5484;BME280;2764;48.794;8.326;2022-10-17T02:02:03;100361.72;;;12.85;100.00
5484;BME280;2764;48.794;8.326;2022-10-17T02:03:08;100352.03;;;12.87;100.00
5484;BME280;2764;48.794;8.326;2022-10-17T02:04:12;100357.41;;;12.84;100.00
5484;BME280;2764;48.794;8.326;2022-10-17T02:05:16;100369.34;;;12.91;100.00
5484;BME280;2764;48.794;8.326;2022-10-17T02:06:19;100367.69;;;12.88;100.00
5484;BME280;2764;48.794;8.326;2022-10-17T02:07:21;100373.03;;;12.87;100.00
5484;BME280;2764;48.794;8.326;2022-10-17T02:08:38;100361.47;;;12.91;100.00
5484;BME280;2764;48.794;8.326;2022-10-17T02:09:40;100359.50;;;12.96;100.00
5484;BME280;2764;48.794;8.326;2022-10-17T02:10:45;100368.94;;;13.00;100.00
5484;BME280;2764;48.794;8.326;2022-10-17T02:21:11;100372.34;;;13.22;100.00
5484;BME280;2764;48.794;8.326;2022-10-17T02:22:32;100365.47;;;13.19;100.00
5484;BME280;2764;48.794;8.326;2022-10-17T02:24:51;100357.09;;;13.11;100.00
5484;BME280;2764;48.794;8.326;2022-10-17T02:29:03;100367.97;;;13.22;100.00
5484;BME280;2764;48.794;8.326;2022-10-17T02:30:14;100367.88;;;13.24;100.00
5484;BME280;2764;48.794;8.326;2022-10-17T02:31:25;100354.13;;;13.19;100.00
5484;BME280;2764;48.794;8.326;2022-10-17T02:33:00;100356.59;;;13.22;100.00
5484;BME280;2764;48.794;8.326;2022-10-17T02:34:08;100370.50;;;13.24;100.00
5484;BME280;2764;48.794;8.326;2022-10-17T02:35:16;100345.72;;;13.11;100.00
5484;BME280;2764;48.794;8.326;2022-10-17T02:36:22;100359.63;;;12.93;100.00
5484;BME280;2764;48.794;8.326;2022-10-17T02:37:27;100355.38;;;13.10;100.00
5484;BME280;2764;48.794;8.326;2022-10-17T02:38:32;100360.56;;;13.12;100.00
5484;BME280;2764;48.794;8.326;2022-10-17T02:39:36;100371.69;;;13.17;100.00
5484;BME280;2764;48.794;8.326;2022-10-17T02:40:41;100361.34;;;13.14;100.00
5484;BME280;2764;48.794;8.326;2022-10-17T02:41:45;100366.59;;;13.14;100.00
5484;BME280;2764;48.794;8.326;2022-10-17T02:42:49;100351.19;;;13.06;100.00
5484;BME280;2764;48.794;8.326;2022-10-17T02:43:53;100365.81;;;13.12;100.00
5484;BME280;2764;48.794;8.326;2022-10-17T02:45:01;100348.72;;;13.02;100.00
5484;BME280;2764;48.794;8.326;2022-10-17T02:46:04;100366.03;;;13.07;100.00
5484;BME280;2764;48.794;8.326;2022-10-17T02:47:18;100370.00;;;13.16;100.00
5484;BME280;2764;48.794;8.326;2022-10-17T02:48:27;100368.28;;;13.15;100.00
5484;BME280;2764;48.794;8.326;2022-10-17T02:49:36;100364.88;;;13.13;100.00
5484;BME280;2764;48.794;8.326;2022-10-17T02:50:56;100364.03;;;13.12;100.00
5484;BME280;2764;48.794;8.326;2022-10-17T02:52:09;100363.69;;;13.20;100.00
5484;BME280;2764;48.794;8.326;2022-10-17T02:53:18;100366.31;;;13.20;100.00
5484;BME280;2764;48.794;8.326;2022-10-17T02:55:00;100366.44;;;13.17;100.00
5484;BME280;2764;48.794;8.326;2022-10-17T02:56:10;100365.47;;;13.19;100.00
5484;BME280;2764;48.794;8.326;2022-10-17T02:57:47;100364.47;;;13.22;100.00
5484;BME280;2764;48.794;8.326;2022-10-17T02:58:54;100367.19;;;13.20;100.00
5484;BME280;2764;48.794;8.326;2022-10-17T03:00:00;100369.94;;;13.17;100.00
5484;BME280;2764;48.794;8.326;2022-10-17T03:01:03;100371.84;;;13.14;100.00
5484;BME280;2764;48.794;8.326;2022-10-17T03:02:05;100375.38;;;13.13;100.00
5484;BME280;2764;48.794;8.326;2022-10-17T03:03:19;100365.34;;;13.02;100.00
5484;BME280;2764;48.794;8.326;2022-10-17T03:04:21;100369.56;;;13.06;100.00
5484;BME280;2764;48.794;8.326;2022-10-17T03:05:27;100367.09;;;13.02;100.00
5484;BME280;2764;48.794;8.326;2022-10-17T03:06:29;100368.66;;;13.07;100.00
5484;BME280;2764;48.794;8.326;2022-10-17T03:07:32;100366.97;;;13.05;100.00
5484;BME280;2764;48.794;8.326;2022-10-17T03:08:34;100366.97;;;13.05;100.00
5484;BME280;2764;48.794;8.326;2022-10-17T03:09:36;100373.03;;;13.07;100.00
5484;BME280;2764;48.794;8.326;2022-10-17T03:10:39;100363.44;;;13.06;100.00
5484;BME280;2764;48.794;8.326;2022-10-17T03:11:41;100350.63;;;12.98;100.00
5484;BME280;2764;48.794;8.326;2022-10-17T03:12:44;100351.63;;;12.96;100.00
5484;BME280;2764;48.794;8.326;2022-10-17T03:13:46;100363.63;;;13.01;100.00
5484;BME280;2764;48.794;8.326;2022-10-17T03:14:48;100356.72;;;12.99;100.00
5484;BME280;2764;48.794;8.326;2022-10-17T03:15:50;100359.31;;;13.00;100.00
5484;BME280;2764;48.794;8.326;2022-10-17T03:16:51;100367.09;;;13.02;100.00
5484;BME280;2764;48.794;8.326;2022-10-17T03:17:54;100361.84;;;13.02;100.00
5484;BME280;2764;48.794;8.326;2022-10-17T03:18:55;100365.38;;;13.01;100.00
5484;BME280;2764;48.794;8.326;2022-10-17T03:19:57;100365.34;;;13.02;100.00
5484;BME280;2764;48.794;8.326;2022-10-17T03:20:59;100349.03;;;12.94;100.00
5484;BME280;2764;48.794;8.326;2022-10-17T03:22:01;100356.91;;;12.94;100.00
5484;BME280;2764;48.794;8.326;2022-10-17T03:23:03;100361.84;;;13.02;100.00
5484;BME280;2764;48.794;8.326;2022-10-17T03:24:05;100365.25;;;13.04;100.00
5484;BME280;2764;48.794;8.326;2022-10-17T03:25:07;100362.53;;;13.07;100.00
5484;BME280;2764;48.794;8.326;2022-10-17T03:26:10;100353.47;;;12.94;100.00
5484;BME280;2764;48.794;8.326;2022-10-17T03:27:12;100368.44;;;13.12;100.00
5484;BME280;2764;48.794;8.326;2022-10-17T03:28:14;100354.75;;;13.05;100.00
5484;BME280;2764;48.794;8.326;2022-10-17T03:29:16;100370.28;;;13.10;100.00
5484;BME280;2764;48.794;8.326;2022-10-17T03:30:18;100360.94;;;13.03;100.00
5484;BME280;2764;48.794;8.326;2022-10-17T03:31:20;100376.44;;;13.09;100.00
5484;BME280;2764;48.794;8.326;2022-10-17T03:32:22;100374.59;;;13.11;100.00
5484;BME280;2764;48.794;8.326;2022-10-17T03:33:24;100369.34;;;13.11;100.00
5484;BME280;2764;48.794;8.326;2022-10-17T03:34:26;100378.09;;;13.11;100.00
5484;BME280;2764;48.794;8.326;2022-10-17T03:35:28;100376.25;;;13.13;100.00
5484;BME280;2764;48.794;8.326;2022-10-17T03:36:30;100340.34;;;12.94;100.00
5484;BME280;2764;48.794;8.326;2022-10-17T03:37:32;100374.53;;;13.12;100.00
5484;BME280;2764;48.794;8.326;2022-10-17T03:38:34;100369.56;;;13.06;100.00
5484;BME280;2764;48.794;8.326;2022-10-17T03:39:36;100370.50;;;13.04;100.00
5484;BME280;2764;48.794;8.326;2022-10-17T03:40:38;100371.13;;;13.10;100.00
5484;BME280;2764;48.794;8.326;2022-10-17T03:41:39;100371.84;;;13.14;100.00
5484;BME280;2764;48.794;8.326;2022-10-17T03:42:42;100368.56;;;13.09;100.00
5484;BME280;2764;48.794;8.326;2022-10-17T03:43:44;100377.03;;;13.15;100.00
5484;BME280;2764;48.794;8.326;2022-10-17T03:44:45;100378.59;;;13.19;100.00
5484;BME280;2764;48.794;8.326;2022-10-17T03:45:47;100381.88;;;13.24;100.00
5484;BME280;2764;48.794;8.326;2022-10-17T03:46:49;100389.75;;;13.24;100.00
5484;BME280;2764;48.794;8.326;2022-10-17T03:47:51;100382.44;;;13.31;100.00
5484;BME280;2764;48.794;8.326;2022-10-17T03:48:54;100385.72;;;13.36;100.00
5484;BME280;2764;48.794;8.326;2022-10-17T03:49:58;100397.22;;;13.33;100.00
5484;BME280;2764;48.794;8.326;2022-10-17T03:51:06;100378.91;;;13.32;100.00
5484;BME280;2764;48.794;8.326;2022-10-17T03:52:12;100388.69;;;13.28;100.00
5484;BME280;2764;48.794;8.326;2022-10-17T03:53:14;100388.91;;;13.24;100.00
5484;BME280;2764;48.794;8.326;2022-10-17T03:54:15;100394.31;;;13.21;100.00
5484;BME280;2764;48.794;8.326;2022-10-17T03:55:17;100359.41;;;12.97;100.00
5484;BME280;2764;48.794;8.326;2022-10-17T03:56:21;100391.09;;;13.14;100.00
5484;BME280;2764;48.794;8.326;2022-10-17T03:57:24;100392.00;;;13.13;100.00
5484;BME280;2764;48.794;8.326;2022-10-17T03:58:25;100392.22;;;13.09;100.00
5484;BME280;2764;48.794;8.326;2022-10-17T03:59:27;100388.88;;;13.04;100.00
5484;BME280;2764;48.794;8.326;2022-10-17T04:00:29;100377.59;;;13.02;100.00
5484;BME280;2764;48.794;8.326;2022-10-17T04:01:30;100383.72;;;13.02;100.00
5484;BME280;2764;48.794;8.326;2022-10-17T04:02:33;100398.13;;;13.14;100.00
5484;BME280;2764;48.794;8.326;2022-10-17T04:03:35;100397.06;;;13.18;100.00
5484;BME280;2764;48.794;8.326;2022-10-17T04:04:37;100393.44;;;13.20;100.00
5484;BME280;2764;48.794;8.326;2022-10-17T04:05:39;100401.41;;;13.19;100.00
5484;BME280;2764;48.794;8.326;2022-10-17T04:06:41;100399.88;;;13.13;100.00
5484;BME280;2764;48.794;8.326;2022-10-17T04:07:43;100387.84;;;13.08;100.00
5484;BME280;2764;48.794;8.326;2022-10-17T04:08:45;100397.69;;;13.03;100.00
5484;BME280;2764;48.794;8.326;2022-10-17T04:09:46;100398.72;;;12.99;100.00
5484;BME280;2764;48.794;8.326;2022-10-17T04:10:48;100399.50;;;13.01;100.00
5484;BME280;2764;48.794;8.326;2022-10-17T04:11:50;100403.78;;;13.03;100.00
5484;BME280;2764;48.794;8.326;2022-10-17T04:12:52;100404.75;;;13.01;100.00
5484;BME280;2764;48.794;8.326;2022-10-17T04:13:55;100395.41;;;12.95;100.00
5484;BME280;2764;48.794;8.326;2022-10-17T04:14:58;100396.44;;;12.91;100.00
5484;BME280;2764;48.794;8.326;2022-10-17T04:16:05;100407.66;;;12.95;100.00
5484;BME280;2764;48.794;8.326;2022-10-17T04:17:07;100399.78;;;12.95;100.00
5484;BME280;2764;48.794;8.326;2022-10-17T04:18:09;100404.91;;;12.98;100.00
5484;BME280;2764;48.794;8.326;2022-10-17T04:19:12;100407.47;;;12.99;100.00
5484;BME280;2764;48.794;8.326;2022-10-17T04:20:15;100405.59;;;13.03;100.00
5484;BME280;2764;48.794;8.326;2022-10-17T04:21:17;100413.47;;;13.03;100.00
5484;BME280;2764;48.794;8.326;2022-10-17T04:22:19;100409.03;;;13.03;100.00
5484;BME280;2764;48.794;8.326;2022-10-17T04:23:21;100398.03;;;12.95;100.00
5484;BME280;2764;48.794;8.326;2022-10-17T04:24:23;100406.25;;;13.08;100.00
5484;BME280;2764;48.794;8.326;2022-10-17T04:25:26;100411.44;;;13.09;100.00
5484;BME280;2764;48.794;8.326;2022-10-17T04:26:28;100402.63;;;13.10;100.00
5484;BME280;2764;48.794;8.326;2022-10-17T04:27:30;100414.13;;;13.08;100.00
5484;BME280;2764;48.794;8.326;2022-10-17T04:28:32;100406.31;;;13.06;100.00
5484;BME280;2764;48.794;8.326;2022-10-17T04:29:34;100408.13;;;13.04;100.00
5484;BME280;2764;48.794;8.326;2022-10-17T04:30:36;100408.31;;;13.00;100.00
5484;BME280;2764;48.794;8.326;2022-10-17T04:31:44;100411.22;;;12.94;100.00
5484;BME280;2764;48.794;8.326;2022-10-17T04:32:45;100412.31;;;12.88;100.00
5484;BME280;2764;48.794;8.326;2022-10-17T04:33:48;100409.03;;;12.83;100.00
5484;BME280;2764;48.794;8.326;2022-10-17T04:34:50;100410.34;;;12.73;100.00
5484;BME280;2764;48.794;8.326;2022-10-17T04:37:00;100410.66;;;12.65;100.00
5484;BME280;2764;48.794;8.326;2022-10-17T04:38:03;100418.84;;;12.58;100.00
5484;BME280;2764;48.794;8.326;2022-10-17T04:39:05;100411.16;;;12.53;100.00
5484;BME280;2764;48.794;8.326;2022-10-17T04:40:07;100415.81;;;12.47;100.00
5484;BME280;2764;48.794;8.326;2022-10-17T04:41:12;100423.75;;;12.45;100.00
5484;BME280;2764;48.794;8.326;2022-10-17T04:42:14;100427.16;;;12.47;100.00
5484;BME280;2764;48.794;8.326;2022-10-17T04:43:17;100420.19;;;12.46;100.00
5484;BME280;2764;48.794;8.326;2022-10-17T04:44:19;100422.03;;;12.44;100.00
5484;BME280;2764;48.794;8.326;2022-10-17T04:45:21;100418.63;;;12.42;100.00
5484;BME280;2764;48.794;8.326;2022-10-17T04:46:23;100416.19;;;12.38;100.00
5484;BME280;2764;48.794;8.326;2022-10-17T04:47:25;100418.06;;;12.34;100.00
5484;BME280;2764;48.794;8.326;2022-10-17T04:48:27;100423.44;;;12.31;100.00
5484;BME280;2764;48.794;8.326;2022-10-17T04:49:29;100415.81;;;12.25;100.00
5484;BME280;2764;48.794;8.326;2022-10-17T04:50:32;100420.31;;;12.22;100.00
5484;BME280;2764;48.794;8.326;2022-10-17T04:51:33;100407.69;;;12.10;100.00
5484;BME280;2764;48.794;8.326;2022-10-17T04:52:35;100422.38;;;12.14;100.00
5484;BME280;2764;48.794;8.326;2022-10-17T04:53:41;100424.34;;;12.09;100.00
5484;BME280;2764;48.794;8.326;2022-10-17T04:54:43;100427.00;;;12.07;100.00
5484;BME280;2764;48.794;8.326;2022-10-17T04:55:45;100430.75;;;12.02;100.00
5484;BME280;2764;48.794;8.326;2022-10-17T04:56:47;100427.25;;;12.01;100.00
5484;BME280;2764;48.794;8.326;2022-10-17T04:57:49;100429.19;;;11.96;100.00
5484;BME280;2764;48.794;8.326;2022-10-17T04:58:51;100431.81;;;11.96;100.00
5484;BME280;2764;48.794;8.326;2022-10-17T04:59:53;100432.72;;;11.95;100.00
5484;BME280;2764;48.794;8.326;2022-10-17T05:00:55;100427.66;;;11.90;100.00
5484;BME280;2764;48.794;8.326;2022-10-17T05:01:57;100425.22;;;11.86;100.00
5484;BME280;2764;48.794;8.326;2022-10-17T05:02:59;100430.63;;;11.81;100.00
5484;BME280;2764;48.794;8.326;2022-10-17T05:04:01;100438.56;;;11.80;100.00
5484;BME280;2764;48.794;8.326;2022-10-17T05:05:03;100439.59;;;11.76;100.00
5484;BME280;2764;48.794;8.326;2022-10-17T05:06:07;100429.28;;;11.71;100.00
5484;BME280;2764;48.794;8.326;2022-10-17T05:07:10;100438.09;;;11.69;100.00
5484;BME280;2764;48.794;8.326;2022-10-17T05:08:11;100433.88;;;11.65;100.00
5484;BME280;2764;48.794;8.326;2022-10-17T05:09:13;100433.16;;;11.60;100.00
5484;BME280;2764;48.794;8.326;2022-10-17T05:10:15;100441.03;;;11.60;100.00
5484;BME280;2764;48.794;8.326;2022-10-17T05:11:26;100446.31;;;11.58;100.00
5484;BME280;2764;48.794;8.326;2022-10-17T05:12:28;100442.84;;;11.58;100.00
5484;BME280;2764;48.794;8.326;2022-10-17T05:13:31;100439.41;;;11.56;100.00
5484;BME280;2764;48.794;8.326;2022-10-17T05:14:33;100443.06;;;11.52;100.00
5484;BME280;2764;48.794;8.326;2022-10-17T05:15:35;100444.78;;;11.53;100.00
5484;BME280;2764;48.794;8.326;2022-10-17T05:16:37;100442.31;;;11.48;100.00
5484;BME280;2764;48.794;8.326;2022-10-17T05:17:39;100448.47;;;11.47;100.00
5484;BME280;2764;48.794;8.326;2022-10-17T05:18:41;100445.13;;;11.44;100.00
5484;BME280;2764;48.794;8.326;2022-10-17T05:19:43;100442.59;;;11.41;100.00
5484;BME280;2764;48.794;8.326;2022-10-17T05:20:44;100448.78;;;11.38;100.00
5484;BME280;2764;48.794;8.326;2022-10-17T05:21:46;100448.84;;;11.37;100.00
5484;BME280;2764;48.794;8.326;2022-10-17T05:22:48;100444.59;;;11.34;100.00
5484;BME280;2764;48.794;8.326;2022-10-17T05:23:50;100432.50;;;11.30;100.00
5484;BME280;2764;48.794;8.326;2022-10-17T05:24:53;100452.50;;;11.33;100.00
5484;BME280;2764;48.794;8.326;2022-10-17T05:25:55;100437.91;;;11.25;100.00
5484;BME280;2764;48.794;8.326;2022-10-17T05:26:57;100407.94;;;11.09;100.00
5484;BME280;2764;48.794;8.326;2022-10-17T05:27:59;100448.22;;;11.30;100.00
5484;BME280;2764;48.794;8.326;2022-10-17T05:29:02;100445.78;;;11.25;100.00
5484;BME280;2764;48.794;8.326;2022-10-17T05:30:04;100433.66;;;11.21;100.00
5484;BME280;2764;48.794;8.326;2022-10-17T05:31:08;100446.56;;;11.27;100.00
5484;BME280;2764;48.794;8.326;2022-10-17T05:32:10;100453.56;;;11.27;100.00
5484;BME280;2764;48.794;8.326;2022-10-17T05:33:12;100457.06;;;11.26;100.00
5484;BME280;2764;48.794;8.326;2022-10-17T05:34:14;100451.03;;;11.24;100.00
5484;BME280;2764;48.794;8.326;2022-10-17T05:35:16;100453.63;;;11.25;100.00
5484;BME280;2764;48.794;8.326;2022-10-17T05:36:18;100451.00;;;11.25;100.00
5484;BME280;2764;48.794;8.326;2022-10-17T05:37:21;100461.34;;;11.28;100.00
5484;BME280;2764;48.794;8.326;2022-10-17T05:38:23;100474.41;;;11.30;100.00
5484;BME280;2764;48.794;8.326;2022-10-17T05:39:26;100459.75;;;11.24;100.00
5484;BME280;2764;48.794;8.326;2022-10-17T05:40:28;100459.66;;;11.27;100.00
5484;BME280;2764;48.794;8.326;2022-10-17T05:41:30;100457.94;;;11.26;100.00
5484;BME280;2764;48.794;8.326;2022-10-17T05:42:32;100457.06;;;11.26;100.00
5484;BME280;2764;48.794;8.326;2022-10-17T05:43:34;100456.25;;;11.25;100.00
5484;BME280;2764;48.794;8.326;2022-10-17T05:44:36;100463.22;;;11.25;100.00
5484;BME280;2764;48.794;8.326;2022-10-17T05:45:40;100459.75;;;11.24;100.00
5484;BME280;2764;48.794;8.326;2022-10-17T05:46:42;100459.75;;;11.24;100.00
5484;BME280;2764;48.794;8.326;2022-10-17T05:47:44;100462.44;;;11.23;100.00
5484;BME280;2764;48.794;8.326;2022-10-17T05:48:45;100469.38;;;11.24;100.00
5484;BME280;2764;48.794;8.326;2022-10-17T05:49:48;100459.75;;;11.24;100.00
5484;BME280;2764;48.794;8.326;2022-10-17T05:50:57;100449.50;;;11.18;100.00
5484;BME280;2764;48.794;8.326;2022-10-17T05:52:00;100470.22;;;11.24;100.00
5484;BME280;2764;48.794;8.326;2022-10-17T05:53:02;100464.09;;;11.25;100.00
5484;BME280;2764;48.794;8.326;2022-10-17T05:54:04;100469.38;;;11.24;100.00
5484;BME280;2764;48.794;8.326;2022-10-17T05:55:07;100452.69;;;11.26;100.00
5484;BME280;2764;48.794;8.326;2022-10-17T05:56:11;100468.72;;;11.42;100.00
5484;BME280;2764;48.794;8.326;2022-10-17T05:57:13;100470.34;;;11.46;100.00
5484;BME280;2764;48.794;8.326;2022-10-17T05:58:15;100466.00;;;11.45;100.00
5484;BME280;2764;48.794;8.326;2022-10-17T05:59:27;100470.22;;;11.49;100.00
5484;BME280;2764;48.794;8.326;2022-10-17T06:00:29;100468.38;;;11.51;100.00
5484;BME280;2764;48.794;8.326;2022-10-17T06:01:32;100466.59;;;11.53;100.00
5484;BME280;2764;48.794;8.326;2022-10-17T06:02:34;100461.28;;;11.55;100.00
5484;BME280;2764;48.794;8.326;2022-10-17T06:03:36;100462.19;;;11.54;100.00
5484;BME280;2764;48.794;8.326;2022-10-17T06:04:38;100467.00;;;11.66;100.00
5484;BME280;2764;48.794;8.326;2022-10-17T06:05:46;100468.59;;;11.71;100.00
5484;BME280;2764;48.794;8.326;2022-10-17T06:06:48;100444.81;;;11.51;100.00
5484;BME280;2764;48.794;8.326;2022-10-17T06:07:50;100469.91;;;11.83;100.00
5484;BME280;2764;48.794;8.326;2022-10-17T06:08:53;100465.44;;;11.85;100.00
5484;BME280;2764;48.794;8.326;2022-10-17T06:09:56;100470.25;;;11.97;100.00
5484;BME280;2764;48.794;8.326;2022-10-17T06:10:59;100466.16;;;12.12;100.00
5484;BME280;2764;48.794;8.326;2022-10-17T06:12:06;100469.53;;;12.15;100.00
5484;BME280;2764;48.794;8.326;2022-10-17T06:13:09;100486.84;;;12.19;100.00